createdAt,value
2022-12-25T00:02:47.887Z,15.50
2022-12-25T00:05:38.275Z,15.27
2022-12-25T00:08:25.699Z,15.10
2022-12-25T00:14:02.703Z,16.38
2022-12-25T00:19:38.039Z,15.18
2022-12-25T00:22:27.141Z,16.50
2022-12-25T00:25:15.410Z,13.00
2022-12-25T00:28:02.661Z,18.35
2022-12-25T00:30:49.920Z,17.15
2022-12-25T00:33:38.058Z,13.80
2022-12-25T00:36:25.775Z,19.55
2022-12-25T00:39:12.882Z,14.70
2022-12-25T00:45:06.900Z,15.77
2022-12-25T00:47:54.839Z,18.73
2022-12-25T00:50:43.597Z,15.27
2022-12-25T00:53:31.792Z,15.25
2022-12-25T00:56:18.901Z,17.50
2022-12-25T00:59:06.185Z,16.02
2022-12-25T01:01:53.811Z,16.00
2022-12-25T01:04:42.269Z,16.88
2022-12-25T01:07:29.701Z,16.75
2022-12-25T01:10:23.467Z,17.83
2022-12-25T01:13:11.034Z,15.40
2022-12-25T01:15:59.299Z,14.13
2022-12-25T01:18:48.936Z,15.88
2022-12-25T01:21:37.111Z,14.77
2022-12-25T01:24:24.726Z,16.17
2022-12-25T01:27:12.934Z,18.75
2022-12-25T01:30:00.438Z,16.55
2022-12-25T01:32:48.126Z,13.38
2022-12-25T01:35:35.635Z,15.63
2022-12-25T01:38:23.213Z,18.50
2022-12-25T01:41:12.254Z,15.07
2022-12-25T01:44:04.436Z,12.32
2022-12-25T01:46:52.020Z,15.68
2022-12-25T01:49:40.631Z,13.40
2022-12-25T01:52:27.894Z,15.70
2022-12-25T01:55:15.651Z,14.82
2022-12-25T01:58:03.469Z,15.70
2022-12-25T02:00:51.947Z,16.27
2022-12-25T02:03:42.872Z,19.02
2022-12-25T02:06:12.039Z,15.35
2022-12-25T02:08:41.814Z,17.92
2022-12-25T02:11:39.645Z,16.40
2022-12-25T02:14:14.180Z,18.27
2022-12-25T02:17:08.120Z,13.73
2022-12-25T02:19:56.250Z,16.02
2022-12-25T02:22:45.770Z,19.48
2022-12-25T02:25:28.307Z,21.33
2022-12-25T02:28:22.125Z,20.05
2022-12-25T02:30:54.412Z,17.10
2022-12-25T02:33:54.634Z,21.73
2022-12-25T02:36:25.169Z,19.17
2022-12-25T02:39:16.295Z,19.92
2022-12-25T02:41:46.391Z,17.90
2022-12-25T02:44:37.517Z,19.20
2022-12-25T02:47:26.287Z,19.27
2022-12-25T02:50:14.778Z,15.23
2022-12-25T02:53:04.967Z,15.77
2022-12-25T02:55:55.867Z,20.15
2022-12-25T02:58:58.269Z,20.20
2022-12-25T03:02:00.772Z,16.80
2022-12-25T03:04:49.499Z,17.42
2022-12-25T03:07:24.446Z,18.55
2022-12-25T03:10:15.237Z,20.27
2022-12-25T03:13:03.081Z,18.85
2022-12-25T03:18:30.773Z,16.13
2022-12-25T03:21:17.987Z,17.95
2022-12-25T03:24:18.987Z,19.20
2022-12-25T03:26:58.663Z,35.13
2022-12-25T03:29:55.081Z,32.58
2022-12-25T03:32:29.245Z,29.98
2022-12-25T03:35:16.500Z,79.05
2022-12-25T03:44:42.093Z,22.30
2022-12-25T03:47:22.442Z,58.17
2022-12-25T03:50:12.823Z,56.58
2022-12-25T03:53:02.585Z,30.88
2022-12-25T03:55:54.166Z,15.73
2022-12-25T03:58:46.466Z,21.17
2022-12-25T04:01:59.186Z,17.48
2022-12-25T04:04:50.294Z,15.93
2022-12-25T04:07:39.467Z,17.05
2022-12-25T04:10:31.158Z,21.02
2022-12-25T04:13:18.786Z,24.85
2022-12-25T04:18:53.307Z,16.88
2022-12-25T04:21:41.457Z,15.57
2022-12-25T04:24:30.442Z,17.00
2022-12-25T04:27:28.345Z,17.95
2022-12-25T04:30:20.126Z,18.80
2022-12-25T04:33:08.175Z,18.02
2022-12-25T04:35:55.720Z,17.30
2022-12-25T04:38:25.019Z,18.48
2022-12-25T04:40:54.306Z,17.38
2022-12-25T04:43:25.578Z,16.42
2022-12-25T04:45:56.315Z,34.65
2022-12-25T04:48:36.332Z,48.08
2022-12-25T04:51:12.587Z,20.25
2022-12-25T04:53:53.276Z,18.50
2022-12-25T04:56:27.148Z,19.55
2022-12-25T04:58:56.492Z,17.75
2022-12-25T05:01:30.511Z,17.77
2022-12-25T05:03:59.775Z,17.40
2022-12-25T05:06:32.788Z,16.23
2022-12-25T05:09:02.053Z,21.25
2022-12-25T05:11:41.193Z,35.03
2022-12-25T05:14:10.372Z,22.55
2022-12-25T05:16:39.418Z,22.88
2022-12-25T05:19:08.571Z,23.33
2022-12-25T05:21:37.550Z,21.33
2022-12-25T05:24:06.695Z,20.55
2022-12-25T05:26:35.530Z,16.23
2022-12-25T05:29:04.814Z,20.55
2022-12-25T05:31:34.354Z,16.15
2022-12-25T05:34:13.119Z,16.70
2022-12-25T05:36:43.606Z,15.02
2022-12-25T05:39:12.949Z,16.20
2022-12-25T05:41:42.849Z,18.13
2022-12-25T05:44:12.078Z,20.30
2022-12-25T05:46:51.549Z,15.88
2022-12-25T05:49:20.700Z,17.38
2022-12-25T05:51:49.661Z,16.70
2022-12-25T05:54:19.310Z,18.95
2022-12-25T05:56:48.106Z,14.38
2022-12-25T05:59:22.253Z,14.77
2022-12-25T06:01:51.484Z,15.05
2022-12-25T06:04:20.743Z,16.80
2022-12-25T06:06:51.239Z,21.83
2022-12-25T06:09:20.334Z,22.75
2022-12-25T06:11:49.269Z,16.25
2022-12-25T06:14:18.016Z,16.52
2022-12-25T06:16:47.389Z,21.73
2022-12-25T06:19:26.354Z,20.30
2022-12-25T06:22:00.557Z,14.32
2022-12-25T06:24:29.921Z,18.63
2022-12-25T06:26:59.226Z,18.35
2022-12-25T06:29:29.042Z,17.58
2022-12-25T06:31:59.310Z,18.30
2022-12-25T06:34:29.612Z,16.05
2022-12-25T06:36:58.759Z,15.20
2022-12-25T06:39:27.737Z,13.93
2022-12-25T06:41:59.936Z,14.23
2022-12-25T06:44:34.186Z,15.07
2022-12-25T06:47:03.458Z,16.70
2022-12-25T06:49:33.036Z,15.32
2022-12-25T06:52:02.051Z,14.25
2022-12-25T06:54:31.182Z,14.95
2022-12-25T06:57:00.172Z,14.57
2022-12-25T06:59:29.440Z,14.00
2022-12-25T07:01:58.587Z,13.90
2022-12-25T07:04:27.671Z,11.85
2022-12-25T07:06:57.174Z,11.73
2022-12-25T07:09:26.274Z,10.55
2022-12-25T07:11:55.729Z,16.08
2022-12-25T07:14:25.863Z,13.85
2022-12-25T07:16:54.695Z,16.10
2022-12-25T07:19:29.527Z,11.27
2022-12-25T07:22:03.615Z,14.77
2022-12-25T07:24:32.969Z,14.70
2022-12-25T07:27:01.861Z,16.08
2022-12-25T07:29:40.006Z,13.38
2022-12-25T07:32:14.258Z,13.93
2022-12-25T07:34:43.437Z,14.23
2022-12-25T07:37:16.781Z,14.60
2022-12-25T07:39:57.809Z,14.20
2022-12-25T07:42:36.519Z,16.35
2022-12-25T07:45:05.627Z,18.08
2022-12-25T07:47:44.907Z,13.55
2022-12-25T07:50:18.921Z,15.10
2022-12-25T07:52:48.001Z,12.65
2022-12-25T07:55:25.939Z,16.60
2022-12-25T07:57:59.893Z,15.57
2022-12-25T08:00:33.040Z,14.93
2022-12-25T08:03:11.962Z,18.13
2022-12-25T08:05:46.903Z,15.45
2022-12-25T08:08:15.959Z,15.65
2022-12-25T08:10:54.562Z,16.45
2022-12-25T08:13:33.227Z,17.58
2022-12-25T08:16:09.054Z,14.82
2022-12-25T08:18:38.725Z,14.88
2022-12-25T08:21:17.751Z,17.30
2022-12-25T08:23:48.824Z,17.00
2022-12-25T08:26:19.230Z,15.15
2022-12-25T08:28:49.113Z,15.27
2022-12-25T08:31:20.991Z,14.35
2022-12-25T08:33:50.752Z,17.45
2022-12-25T08:36:20.765Z,18.20
2022-12-25T08:38:49.473Z,18.75
2022-12-25T08:41:18.490Z,14.77
2022-12-25T08:43:57.524Z,14.30
2022-12-25T08:46:31.553Z,13.85
2022-12-25T08:49:01.566Z,13.43
2022-12-25T08:51:30.871Z,13.00
2022-12-25T08:54:01.006Z,18.80
2022-12-25T08:56:31.475Z,15.00
2022-12-25T08:59:08.957Z,13.75
2022-12-25T09:01:37.986Z,14.38
2022-12-25T09:04:07.228Z,17.33
2022-12-25T09:06:35.744Z,14.23
2022-12-25T09:09:07.846Z,17.75
2022-12-25T09:11:37.125Z,15.55
2022-12-25T09:14:08.984Z,14.73
2022-12-25T09:16:42.231Z,13.32
2022-12-25T09:19:14.317Z,15.75
2022-12-25T09:21:43.452Z,12.65
2022-12-25T09:24:17.227Z,14.43
2022-12-25T09:26:51.909Z,14.82
2022-12-25T09:29:21.173Z,12.65
2022-12-25T09:31:50.113Z,12.65
2022-12-25T09:34:19.280Z,13.20
2022-12-25T09:36:57.948Z,19.42
2022-12-25T09:39:32.416Z,15.30
2022-12-25T09:42:17.800Z,13.90
2022-12-25T09:44:59.698Z,12.85
2022-12-25T09:47:33.914Z,12.30
2022-12-25T09:50:09.023Z,11.63
2022-12-25T09:52:55.525Z,15.18
2022-12-25T09:55:31.932Z,14.30
2022-12-25T09:58:02.111Z,14.50
2022-12-25T10:00:37.361Z,12.00
2022-12-25T10:03:15.920Z,13.18
2022-12-25T10:05:48.237Z,14.98
2022-12-25T10:08:25.724Z,13.88
2022-12-25T10:14:20.632Z,15.93
2022-12-25T10:20:32.994Z,12.27
2022-12-25T10:23:17.162Z,11.13
2022-12-25T10:25:56.406Z,15.60
2022-12-25T10:28:28.225Z,15.82
2022-12-25T10:31:00.389Z,15.13
2022-12-25T10:33:39.174Z,14.77
2022-12-25T10:36:10.000Z,13.35
2022-12-25T10:38:48.828Z,17.67
2022-12-25T10:41:40.491Z,16.63
2022-12-25T10:44:22.125Z,14.52
2022-12-25T10:46:59.998Z,14.30
2022-12-25T10:49:31.428Z,13.75
2022-12-25T10:52:00.607Z,12.25
2022-12-25T10:54:36.145Z,13.05
2022-12-25T10:57:14.962Z,12.82
2022-12-25T10:59:45.608Z,18.83
2022-12-25T11:02:32.204Z,23.05
2022-12-25T11:05:03.112Z,20.70
2022-12-25T11:07:34.165Z,13.38
2022-12-25T11:10:22.256Z,16.88
2022-12-25T11:12:52.143Z,16.20
2022-12-25T11:15:40.981Z,16.87
2022-12-25T11:18:29.004Z,17.52
2022-12-25T11:21:00.780Z,15.55
2022-12-25T11:23:31.827Z,11.60
2022-12-25T11:26:08.112Z,14.57
2022-12-25T11:28:49.554Z,21.35
2022-12-25T11:31:22.034Z,14.10
2022-12-25T11:34:04.140Z,12.13
2022-12-25T11:36:46.517Z,15.77
2022-12-25T11:42:37.298Z,12.43
2022-12-25T11:45:14.961Z,11.43
2022-12-25T11:47:46.920Z,12.50
2022-12-25T11:50:29.726Z,11.77
2022-12-25T11:53:25.836Z,11.52
2022-12-25T11:55:57.647Z,12.70
2022-12-25T11:58:41.563Z,10.15
2022-12-25T12:01:21.813Z,12.32
2022-12-25T12:04:02.316Z,12.90
2022-12-25T12:06:49.911Z,13.50
2022-12-25T12:09:37.667Z,13.68
2022-12-25T12:12:18.120Z,26.23
2022-12-25T12:14:53.361Z,27.38
2022-12-25T12:17:27.200Z,26.90
2022-12-25T12:19:56.043Z,22.60
2022-12-25T12:22:35.367Z,36.10
2022-12-25T12:25:08.236Z,31.45
2022-12-25T12:27:41.374Z,30.20
2022-12-25T12:30:25.268Z,22.45
2022-12-25T12:32:55.602Z,16.38
2022-12-25T12:35:39.167Z,20.88
2022-12-25T12:38:08.227Z,20.92
2022-12-25T12:40:38.838Z,17.65
2022-12-25T12:43:30.509Z,19.77
2022-12-25T12:46:21.586Z,14.98
2022-12-25T12:48:54.579Z,19.70
2022-12-25T12:51:32.207Z,18.58
2022-12-25T12:54:20.862Z,18.50
2022-12-25T12:57:06.722Z,15.50
2022-12-25T12:59:47.386Z,14.48
2022-12-25T13:02:44.854Z,22.13
2022-12-25T13:05:19.007Z,23.10
2022-12-25T13:07:57.026Z,21.85
2022-12-25T13:10:39.933Z,21.27
2022-12-25T13:13:14.691Z,22.02
2022-12-25T13:15:46.108Z,26.83
2022-12-25T13:18:15.530Z,20.52
2022-12-25T13:20:49.980Z,32.88
2022-12-25T13:23:29.798Z,88.85
2022-12-25T13:26:00.393Z,62.10
2022-12-25T13:28:32.275Z,76.78
2022-12-25T13:31:21.194Z,38.92
2022-12-25T13:33:53.585Z,64.18
2022-12-25T13:36:24.879Z,33.20
2022-12-25T13:38:57.399Z,41.03
2022-12-25T13:41:46.327Z,33.72
2022-12-25T13:44:25.476Z,25.50
2022-12-25T13:46:54.833Z,24.83
2022-12-25T13:49:36.580Z,19.27
2022-12-25T13:52:21.550Z,23.88
2022-12-25T13:55:01.525Z,21.38
2022-12-25T13:57:35.289Z,17.77
2022-12-25T14:00:05.975Z,17.25
2022-12-25T14:02:38.837Z,20.50
2022-12-25T14:05:42.709Z,18.86
2022-12-25T14:08:17.613Z,14.95
2022-12-25T14:10:57.471Z,16.23
2022-12-25T14:13:38.293Z,17.08
2022-12-25T14:16:07.558Z,17.30
2022-12-25T14:18:55.882Z,16.13
2022-12-25T14:21:31.302Z,28.73
2022-12-25T14:24:00.312Z,45.15
2022-12-25T14:26:30.665Z,21.35
2022-12-25T14:29:06.064Z,14.50
2022-12-25T14:31:35.483Z,17.40
2022-12-25T14:34:18.720Z,19.40
2022-12-25T14:36:58.156Z,19.48
2022-12-25T14:39:37.515Z,16.17
2022-12-25T14:42:18.362Z,17.02
2022-12-25T14:44:59.201Z,15.48
2022-12-25T14:47:28.598Z,14.27
2022-12-25T14:50:15.008Z,17.73
2022-12-25T14:52:45.789Z,17.60
2022-12-25T14:55:22.792Z,15.40
2022-12-25T14:58:04.979Z,11.27
2022-12-25T15:00:42.911Z,18.15
2022-12-25T15:03:21.489Z,15.05
2022-12-25T15:09:06.897Z,18.50
2022-12-25T15:11:35.644Z,21.23
2022-12-25T15:14:04.828Z,20.45
2022-12-25T15:16:36.817Z,15.38
2022-12-25T15:19:07.137Z,12.38
2022-12-25T15:21:37.206Z,17.05
2022-12-25T15:24:06.405Z,19.67
2022-12-25T15:26:40.740Z,13.55
2022-12-25T15:29:10.782Z,13.60
2022-12-25T15:31:42.459Z,15.48
2022-12-25T15:34:21.727Z,15.32
2022-12-25T15:36:54.647Z,17.30
2022-12-25T15:39:23.660Z,16.83
2022-12-25T15:42:12.767Z,15.45
2022-12-25T15:44:42.312Z,18.27
2022-12-25T15:47:12.333Z,20.60
2022-12-25T15:49:41.335Z,22.52
2022-12-25T15:52:14.829Z,19.60
2022-12-25T15:54:45.033Z,17.98
2022-12-25T15:57:21.468Z,19.05
2022-12-25T15:59:58.071Z,18.17
2022-12-25T16:02:28.677Z,19.80
2022-12-25T16:04:59.307Z,15.88
2022-12-25T16:07:34.078Z,16.95
2022-12-25T16:10:07.332Z,18.33
2022-12-25T16:12:46.064Z,14.38
2022-12-25T16:15:20.605Z,14.18
2022-12-25T16:17:49.941Z,15.55
2022-12-25T16:20:18.793Z,17.80
2022-12-25T16:22:47.803Z,13.32
2022-12-25T16:25:20.550Z,16.58
2022-12-25T16:27:49.971Z,14.55
2022-12-25T16:30:19.200Z,16.48
2022-12-25T16:32:54.067Z,15.77
2022-12-25T16:35:23.102Z,13.95
2022-12-25T16:37:52.389Z,19.13
2022-12-25T16:40:21.170Z,14.50
2022-12-25T16:42:58.214Z,13.35
2022-12-25T16:45:27.212Z,17.38
2022-12-25T16:47:57.283Z,12.77
2022-12-25T16:50:26.304Z,15.57
2022-12-25T16:52:55.029Z,16.20
2022-12-25T16:55:34.631Z,17.75
2022-12-25T16:58:03.713Z,16.88
2022-12-25T17:00:33.084Z,16.95
2022-12-25T17:03:02.297Z,15.23
2022-12-25T17:05:33.524Z,18.38
2022-12-25T17:08:02.668Z,16.70
2022-12-25T17:10:32.765Z,14.52
2022-12-25T17:13:01.414Z,17.92
2022-12-25T17:15:30.528Z,15.27
2022-12-25T17:17:59.646Z,14.33
2022-12-25T17:20:29.737Z,13.98
2022-12-25T17:22:58.709Z,16.95
2022-12-25T17:25:38.270Z,19.17
2022-12-25T17:28:17.133Z,15.40
2022-12-25T17:30:45.890Z,19.75
2022-12-25T17:33:14.489Z,53.97
2022-12-25T17:35:43.485Z,98.22
2022-12-25T17:38:22.563Z,113.35
2022-12-25T17:40:56.301Z,98.55
2022-12-25T17:43:35.821Z,87.25
2022-12-25T17:46:06.222Z,87.07
2022-12-25T17:48:40.728Z,91.37
2022-12-25T17:51:20.115Z,91.22
2022-12-25T17:53:51.647Z,106.28
2022-12-25T17:56:25.440Z,111.90
2022-12-25T17:58:55.161Z,111.72
2022-12-25T18:01:34.168Z,119.93
2022-12-25T18:04:08.346Z,114.57
2022-12-25T18:06:37.514Z,128.85
2022-12-25T18:09:11.540Z,125.32
2022-12-25T18:11:41.443Z,125.28
2022-12-25T18:14:12.142Z,118.30
2022-12-25T18:16:43.732Z,121.68
2022-12-25T18:19:13.762Z,121.70
2022-12-25T18:21:43.265Z,117.10
2022-12-25T18:24:22.521Z,133.40
2022-12-25T18:26:51.349Z,122.68
2022-12-25T18:29:26.584Z,120.53
2022-12-25T18:31:56.015Z,115.80
2022-12-25T18:34:25.132Z,97.68
2022-12-25T18:36:54.032Z,98.47
2022-12-25T18:39:22.644Z,87.63
2022-12-25T18:42:10.340Z,73.65
2022-12-25T18:44:45.140Z,65.43
2022-12-25T18:47:18.884Z,68.90
2022-12-25T18:49:49.188Z,68.85
2022-12-25T18:52:47.576Z,68.50
2022-12-25T18:55:08.522Z,66.03
2022-12-25T18:57:37.606Z,52.78
2022-12-25T19:00:07.006Z,54.42
2022-12-25T19:02:36.280Z,59.10
2022-12-25T19:05:06.455Z,65.88
2022-12-25T19:07:36.305Z,71.25
2022-12-25T19:10:05.729Z,71.18
2022-12-25T19:12:38.744Z,84.07
2022-12-25T19:15:13.519Z,90.95
2022-12-25T19:17:42.739Z,80.38
2022-12-25T19:20:11.986Z,79.70
2022-12-25T19:22:41.819Z,77.00
2022-12-25T19:25:10.585Z,46.55
2022-12-25T19:27:39.240Z,49.50
2022-12-25T19:30:14.488Z,53.90
2022-12-25T19:32:43.573Z,68.90
2022-12-25T19:35:12.270Z,44.70
2022-12-25T19:37:41.026Z,33.15
2022-12-25T19:40:10.355Z,34.47
2022-12-25T19:42:41.854Z,34.63
2022-12-25T19:45:15.300Z,29.33
2022-12-25T19:47:45.229Z,37.25
2022-12-25T19:50:14.244Z,38.45
2022-12-25T19:52:45.259Z,41.50
2022-12-25T19:55:14.595Z,50.17
2022-12-25T19:57:43.287Z,54.65
2022-12-25T20:00:12.704Z,49.47
2022-12-25T20:02:45.398Z,57.33
2022-12-25T20:05:24.440Z,59.97
2022-12-25T20:07:53.267Z,51.63
2022-12-25T20:10:22.367Z,59.30
2022-12-25T20:12:51.525Z,55.35
2022-12-25T20:15:21.446Z,59.55
2022-12-25T20:17:50.464Z,42.30
2022-12-25T20:20:24.833Z,38.13
2022-12-25T20:22:53.529Z,41.38
2022-12-25T20:25:23.666Z,35.03
2022-12-25T20:27:58.494Z,33.28
2022-12-25T20:30:27.553Z,33.40
2022-12-25T20:32:58.261Z,30.25
2022-12-25T20:35:33.763Z,30.35
2022-12-25T20:38:02.838Z,23.10
2022-12-25T20:40:46.761Z,26.95
2022-12-25T20:43:26.296Z,25.35
2022-12-25T20:46:05.925Z,26.40
2022-12-25T20:48:47.359Z,28.52
2022-12-25T20:51:17.860Z,22.35
2022-12-25T20:53:46.743Z,21.33
2022-12-25T20:56:21.954Z,30.73
2022-12-25T20:58:55.923Z,35.68
2022-12-25T21:01:25.523Z,31.73
2022-12-25T21:03:55.965Z,37.55
2022-12-25T21:06:26.063Z,28.90
2022-12-25T21:09:00.420Z,31.37
2022-12-25T21:11:31.763Z,28.40
2022-12-25T21:14:00.716Z,23.45
2022-12-25T21:16:29.719Z,26.75
2022-12-25T21:19:02.802Z,27.75
2022-12-25T21:21:43.484Z,27.77
2022-12-25T21:24:12.389Z,25.70
2022-12-25T21:26:47.651Z,24.00
2022-12-25T21:29:18.438Z,25.30
2022-12-25T21:32:05.731Z,25.95
2022-12-25T21:34:44.867Z,26.95
2022-12-25T21:37:14.209Z,25.73
2022-12-25T21:39:45.711Z,17.02
2022-12-25T21:42:14.702Z,21.08
2022-12-25T21:44:53.223Z,20.08
2022-12-25T21:47:22.251Z,19.65
2022-12-25T21:50:15.011Z,21.50
2022-12-25T21:52:49.999Z,20.02
2022-12-25T21:55:24.297Z,16.33
2022-12-25T21:57:52.996Z,17.30
2022-12-25T22:00:28.003Z,17.73
2022-12-25T22:03:02.221Z,16.30
2022-12-25T22:05:50.993Z,20.58
2022-12-25T22:08:19.693Z,21.67
2022-12-25T22:10:58.422Z,19.80
2022-12-25T22:13:46.235Z,17.50
2022-12-25T22:16:43.375Z,17.20
2022-12-25T22:19:37.587Z,19.30
2022-12-25T22:22:12.343Z,15.65
2022-12-25T22:24:45.677Z,17.45
2022-12-25T22:27:14.640Z,16.52
2022-12-25T22:32:20.037Z,14.55
2022-12-25T22:34:49.048Z,9.43
2022-12-25T22:37:28.472Z,7.72
2022-12-25T22:39:57.446Z,10.48
2022-12-25T22:42:31.357Z,14.68
2022-12-25T22:45:05.944Z,9.55
2022-12-25T22:47:35.700Z,8.55
2022-12-25T22:50:09.229Z,9.75
2022-12-25T22:52:39.715Z,8.98
2022-12-25T22:55:10.005Z,8.85
2022-12-25T22:57:38.878Z,8.05
2022-12-25T23:00:09.232Z,9.98
2022-12-25T23:02:38.281Z,9.50
2022-12-25T23:05:17.388Z,10.20
2022-12-25T23:07:46.519Z,11.23
2022-12-25T23:10:19.968Z,10.93
2022-12-25T23:13:07.651Z,14.20
2022-12-25T23:15:38.955Z,11.93
2022-12-25T23:18:26.640Z,14.07
2022-12-25T23:21:18.410Z,19.17
2022-12-25T23:24:05.914Z,19.20
2022-12-25T23:26:45.057Z,17.65
2022-12-25T23:29:32.586Z,23.05
2022-12-25T23:32:01.745Z,27.20
2022-12-25T23:34:30.889Z,19.40
2022-12-25T23:37:00.098Z,16.35
2022-12-25T23:39:29.305Z,20.15
2022-12-25T23:41:58.844Z,20.42
2022-12-25T23:44:32.955Z,22.55
2022-12-25T23:47:02.130Z,19.27
2022-12-25T23:49:32.529Z,24.00
2022-12-25T23:52:08.365Z,26.30
2022-12-25T23:54:37.203Z,27.98
2022-12-25T23:57:11.217Z,24.92
2022-12-25T23:59:44.999Z,17.92
